Wetterdaten: aktuell Montag, 25.05.2015 04:15
Datum Zeit Temperatur Feuchte Luftdruck Regen Wind Richtung Richtung Taupunkt Windchill
25.05.2015 04:15 10,6 C 73 % 1015,9 hPa 0,0 l/m 0,0 km/h (0 Bft) NW 310 6,0 C 10,6 C
25.05.2015 03:15 10,1 C 72 % 1015,9 hPa 0,0 l/m 0,0 km/h (0 Bft) NW 310 5,3 C 10,1 C
25.05.2015 02:15 10,6 C 68 % 1015,9 hPa 0,0 l/m 0,0 km/h (0 Bft) NW 310 4,9 C 10,6 C
25.05.2015 01:15 11,2 C 68 % 1015,8 hPa 0,0 l/m 0,0 km/h (0 Bft) NW 310 5,5 C 11,2 C
25.05.2015 00:15 12,0 C 65 % 1016,8 hPa 0,0 l/m 0,0 km/h (0 Bft) W 260 5,6 C 12,0 C
24.05.2015 23:15 13,4 C 61 % 1016,7 hPa 0,0 l/m 0,0 km/h (0 Bft) O-NO 70 6,0 C 13,4 C
24.05.2015 22:15 14,5 C 57 % 1016,6 hPa 0,0 l/m 0,0 km/h (0 Bft) O-NO 70 6,1 C 14,5 C
24.05.2015 21:15 16,6 C 53 % 1016,4 hPa 0,0 l/m 0,0 km/h (0 Bft) O-NO 70 7,0 C 16,6 C
24.05.2015 20:15 19,3 C 45 % 1016,2 hPa 0,0 l/m 0,0 km/h (0 Bft) O-NO 70 7,1 C 19,3 C
24.05.2015 19:15 20,8 C 44 % 1015,1 hPa 0,0 l/m 0,0 km/h (0 Bft) O-NO 70 8,1 C 20,8 C
24.05.2015 18:15 22,0 C 42 % 1016,0 hPa 0,0 l/m 0,0 km/h (0 Bft) O-NO 70 8,5 C 22,0 C
24.05.2015 17:15 23,0 C 40 % 1015,9 hPa 0,0 l/m 0,0 km/h (0 Bft) O-NO 70 8,7 C 23,0 C
24.05.2015 16:15 22,2 C 43 % 1017,0 hPa 0,0 l/m 0,0 km/h (0 Bft) O-NO 70 9,0 C 22,2 C
24.05.2015 15:15 21,8 C 42 % 1017,0 hPa 0,0 l/m 0,0 km/h (0 Bft) O-NO 70 8,3 C 21,8 C
24.05.2015 14:15 20,9 C 50 % 1018,1 hPa 0,0 l/m 0,0 km/h (0 Bft) O-NO 70 10,1 C 20,9 C
24.05.2015 13:15 19,8 C 55 % 1018,2 hPa 0,0 l/m 0,0 km/h (0 Bft) O-NO 70 10,5 C 19,8 C
24.05.2015 12:15 19,2 C 61 % 1018,2 hPa 0,0 l/m 0,0 km/h (0 Bft) O-NO 70 11,5 C 19,2 C
24.05.2015 11:15 16,0 C 67 % 1019,5 hPa 0,0 l/m 0,0 km/h (0 Bft) O-NO 70 9,9 C 16,0 C
24.05.2015 10:15 14,5 C 73 % 1019,7 hPa 0,0 l/m 0,0 km/h (0 Bft) O-NO 70 9,7 C 14,5 C
24.05.2015 09:15 12,7 C 79 % 1019,8 hPa 0,0 l/m 0,3 km/h (0 Bft) O-NO 70 9,2 C 12,7 C
24.05.2015 08:15 10,8 C 81 % 1020,0 hPa 0,0 l/m 0,0 km/h (0 Bft) NO 40 7,7 C 10,8 C
24.05.2015 07:15 9,4 C 81 % 1020,1 hPa 0,0 l/m 22,6 km/h (4 Bft) O-SO22.5 120 6,3 C 6,4 C
24.05.2015 06:15 8,9 C 82 % 1020,1 hPa 0,0 l/m 22,6 km/h (4 Bft) SO22.5 140 6,0 C 5,7 C
24.05.2015 05:15 8,8 C 84 % 1020,1 hPa 0,0 l/m 22,6 km/h (4 Bft) S-SO22.5 160 6,2 C 5,6 C
24.05.2015 05:00 8,5 C 85 % 1020,2 hPa 0,0 l/m 22,6 km/h (4 Bft) S-SO22.5 165 6,1 C 5,2 C
_ Min-Zeit 05:00 17:15 18:54 - 08:03 - - 02:33 05:00
Minimum _ 8,5 C 40 % 1015,0 hPa - 0,0 km/h (0 Bft) - - 4,9 C 5,2 C
_ Max-Zeit 17:24 05:00 05:00 05:00 05:00 - - 12:15 17:24
Maximum _ 23,1 C 85 % 1020,2 hPa 0,0 l/m 22,6 km/h
S-SO (4 Bft)
- - 11,5 C 23,1 C
Durchschnitt _ 15,0 C 63 % 1017,8 hPa #0,0 l/m 4,2 km/h (1 Bft) SO - 7,6 C 14,4 C